sensor_id;sensor_type;location;lat;lon;timestamp;P1;durP1;ratioP1;P2;durP2;ratioP2
36925;SDS011;22842;48.610;11.612;2022-11-11T00:01:09;16.55;;;7.72;;
36925;SDS011;22842;48.610;11.612;2022-11-11T00:03:37;16.02;;;8.20;;
36925;SDS011;22842;48.610;11.612;2022-11-11T00:06:06;21.48;;;9.70;;
36925;SDS011;22842;48.610;11.612;2022-11-11T00:08:35;13.35;;;6.93;;
36925;SDS011;22842;48.610;11.612;2022-11-11T00:11:03;24.95;;;8.88;;
36925;SDS011;22842;48.610;11.612;2022-11-11T00:13:31;14.95;;;7.75;;
36925;SDS011;22842;48.610;11.612;2022-11-11T00:16:05;10.07;;;6.22;;
36925;SDS011;22842;48.610;11.612;2022-11-11T00:18:33;9.73;;;5.45;;
36925;SDS011;22842;48.610;11.612;2022-11-11T00:21:24;8.30;;;4.97;;
36925;SDS011;22842;48.610;11.612;2022-11-11T00:24:21;10.32;;;5.50;;
36925;SDS011;22842;48.610;11.612;2022-11-11T00:27:08;8.68;;;5.47;;
36925;SDS011;22842;48.610;11.612;2022-11-11T00:29:36;9.07;;;5.60;;
36925;SDS011;22842;48.610;11.612;2022-11-11T00:32:08;11.60;;;5.35;;
36925;SDS011;22842;48.610;11.612;2022-11-11T00:34:57;11.20;;;4.97;;
36925;SDS011;22842;48.610;11.612;2022-11-11T00:37:44;8.50;;;5.07;;
36925;SDS011;22842;48.610;11.612;2022-11-11T00:40:14;10.23;;;5.20;;
36925;SDS011;22842;48.610;11.612;2022-11-11T00:42:42;7.15;;;4.53;;
36925;SDS011;22842;48.610;11.612;2022-11-11T00:45:10;7.32;;;4.30;;
36925;SDS011;22842;48.610;11.612;2022-11-11T00:47:38;7.72;;;4.15;;
36925;SDS011;22842;48.610;11.612;2022-11-11T00:50:25;7.00;;;4.45;;
36925;SDS011;22842;48.610;11.612;2022-11-11T00:53:16;6.47;;;3.97;;
36925;SDS011;22842;48.610;11.612;2022-11-11T00:55:51;7.32;;;4.13;;
36925;SDS011;22842;48.610;11.612;2022-11-11T00:58:19;8.00;;;4.35;;
36925;SDS011;22842;48.610;11.612;2022-11-11T01:00:49;5.43;;;3.90;;
36925;SDS011;22842;48.610;11.612;2022-11-11T01:03:19;6.55;;;4.13;;
36925;SDS011;22842;48.610;11.612;2022-11-11T01:05:47;5.28;;;3.90;;
36925;SDS011;22842;48.610;11.612;2022-11-11T01:08:15;6.28;;;4.18;;
36925;SDS011;22842;48.610;11.612;2022-11-11T01:10:43;8.10;;;4.53;;
36925;SDS011;22842;48.610;11.612;2022-11-11T01:15:40;5.18;;;3.83;;
36925;SDS011;22842;48.610;11.612;2022-11-11T01:18:08;7.47;;;5.22;;
36925;SDS011;22842;48.610;11.612;2022-11-11T01:20:36;7.47;;;4.00;;
36925;SDS011;22842;48.610;11.612;2022-11-11T01:23:05;8.93;;;4.60;;
36925;SDS011;22842;48.610;11.612;2022-11-11T01:25:33;6.18;;;4.38;;
36925;SDS011;22842;48.610;11.612;2022-11-11T01:28:01;8.10;;;4.90;;
36925;SDS011;22842;48.610;11.612;2022-11-11T01:30:32;7.85;;;4.72;;
36925;SDS011;22842;48.610;11.612;2022-11-11T01:33:00;5.72;;;3.90;;
36925;SDS011;22842;48.610;11.612;2022-11-11T01:35:28;6.65;;;3.75;;
36925;SDS011;22842;48.610;11.612;2022-11-11T01:37:56;6.28;;;4.22;;
36925;SDS011;22842;48.610;11.612;2022-11-11T01:40:25;5.65;;;4.13;;
36925;SDS011;22842;48.610;11.612;2022-11-11T01:42:53;4.70;;;3.72;;
36925;SDS011;22842;48.610;11.612;2022-11-11T01:48:18;5.60;;;4.23;;
36925;SDS011;22842;48.610;11.612;2022-11-11T01:51:05;6.88;;;4.50;;
36925;SDS011;22842;48.610;11.612;2022-11-11T01:53:33;11.90;;;4.20;;
36925;SDS011;22842;48.610;11.612;2022-11-11T01:56:01;6.80;;;4.88;;
36925;SDS011;22842;48.610;11.612;2022-11-11T01:58:29;9.40;;;5.32;;
36925;SDS011;22842;48.610;11.612;2022-11-11T02:00:57;8.10;;;5.32;;
36925;SDS011;22842;48.610;11.612;2022-11-11T02:03:26;9.38;;;4.90;;
36925;SDS011;22842;48.610;11.612;2022-11-11T02:05:56;6.45;;;4.72;;
36925;SDS011;22842;48.610;11.612;2022-11-11T02:08:25;7.47;;;4.60;;
36925;SDS011;22842;48.610;11.612;2022-11-11T02:11:01;11.20;;;4.82;;
36925;SDS011;22842;48.610;11.612;2022-11-11T02:13:29;5.35;;;4.35;;
36925;SDS011;22842;48.610;11.612;2022-11-11T02:16:16;5.90;;;4.25;;
36925;SDS011;22842;48.610;11.612;2022-11-11T02:18:44;8.82;;;4.18;;
36925;SDS011;22842;48.610;11.612;2022-11-11T02:21:12;11.45;;;4.32;;
36925;SDS011;22842;48.610;11.612;2022-11-11T02:23:43;8.00;;;3.97;;
36925;SDS011;22842;48.610;11.612;2022-11-11T02:26:13;6.63;;;4.45;;
36925;SDS011;22842;48.610;11.612;2022-11-11T02:28:42;6.07;;;3.92;;
36925;SDS011;22842;48.610;11.612;2022-11-11T02:31:10;6.32;;;4.43;;
36925;SDS011;22842;48.610;11.612;2022-11-11T02:33:38;5.85;;;3.95;;
36925;SDS011;22842;48.610;11.612;2022-11-11T02:36:07;8.32;;;4.32;;
36925;SDS011;22842;48.610;11.612;2022-11-11T02:38:40;6.47;;;3.88;;
36925;SDS011;22842;48.610;11.612;2022-11-11T02:41:09;12.38;;;3.85;;
36925;SDS011;22842;48.610;11.612;2022-11-11T02:43:56;6.00;;;3.90;;
36925;SDS011;22842;48.610;11.612;2022-11-11T02:46:24;9.90;;;4.43;;
36925;SDS011;22842;48.610;11.612;2022-11-11T02:48:51;6.38;;;4.65;;
36925;SDS011;22842;48.610;11.612;2022-11-11T02:51:19;5.55;;;3.78;;
36925;SDS011;22842;48.610;11.612;2022-11-11T02:53:46;7.70;;;4.30;;
36925;SDS011;22842;48.610;11.612;2022-11-11T02:56:14;6.80;;;4.30;;
36925;SDS011;22842;48.610;11.612;2022-11-11T02:59:05;6.57;;;4.00;;
36925;SDS011;22842;48.610;11.612;2022-11-11T03:01:32;6.13;;;4.13;;
36925;SDS011;22842;48.610;11.612;2022-11-11T03:04:00;7.55;;;3.83;;
36925;SDS011;22842;48.610;11.612;2022-11-11T03:06:28;7.70;;;3.65;;
36925;SDS011;22842;48.610;11.612;2022-11-11T03:08:55;5.45;;;3.80;;
36925;SDS011;22842;48.610;11.612;2022-11-11T03:11:23;14.43;;;5.20;;
36925;SDS011;22842;48.610;11.612;2022-11-11T03:13:57;16.08;;;5.28;;
36925;SDS011;22842;48.610;11.612;2022-11-11T03:16:25;9.32;;;5.53;;
36925;SDS011;22842;48.610;11.612;2022-11-11T03:19:11;13.77;;;5.57;;
36925;SDS011;22842;48.610;11.612;2022-11-11T03:21:39;9.77;;;5.20;;
36925;SDS011;22842;48.610;11.612;2022-11-11T03:24:28;7.88;;;4.90;;
36925;SDS011;22842;48.610;11.612;2022-11-11T03:27:16;12.15;;;5.22;;
36925;SDS011;22842;48.610;11.612;2022-11-11T03:29:43;8.77;;;5.40;;
36925;SDS011;22842;48.610;11.612;2022-11-11T03:32:11;7.72;;;4.97;;
36925;SDS011;22842;48.610;11.612;2022-11-11T03:34:38;22.83;;;6.20;;
36925;SDS011;22842;48.610;11.612;2022-11-11T03:37:08;11.15;;;6.15;;
36925;SDS011;22842;48.610;11.612;2022-11-11T03:39:54;10.63;;;5.53;;
36925;SDS011;22842;48.610;11.612;2022-11-11T03:42:22;10.55;;;6.47;;
36925;SDS011;22842;48.610;11.612;2022-11-11T03:44:50;13.50;;;5.93;;
36925;SDS011;22842;48.610;11.612;2022-11-11T03:47:18;8.68;;;5.40;;
36925;SDS011;22842;48.610;11.612;2022-11-11T03:49:46;11.40;;;5.25;;
36925;SDS011;22842;48.610;11.612;2022-11-11T03:52:14;10.88;;;5.25;;
36925;SDS011;22842;48.610;11.612;2022-11-11T03:54:42;9.45;;;4.75;;
36925;SDS011;22842;48.610;11.612;2022-11-11T03:57:09;8.55;;;4.43;;
36925;SDS011;22842;48.610;11.612;2022-11-11T03:59:55;9.25;;;4.60;;
36925;SDS011;22842;48.610;11.612;2022-11-11T04:02:23;8.60;;;5.82;;
36925;SDS011;22842;48.610;11.612;2022-11-11T04:05:09;7.82;;;4.95;;
36925;SDS011;22842;48.610;11.612;2022-11-11T04:07:55;8.65;;;4.60;;
36925;SDS011;22842;48.610;11.612;2022-11-11T04:10:41;8.20;;;5.47;;
36925;SDS011;22842;48.610;11.612;2022-11-11T04:13:08;8.52;;;4.28;;
36925;SDS011;22842;48.610;11.612;2022-11-11T04:15:54;6.40;;;4.10;;
36925;SDS011;22842;48.610;11.612;2022-11-11T04:18:35;7.57;;;4.18;;
36925;SDS011;22842;48.610;11.612;2022-11-11T04:21:22;9.10;;;4.57;;
36925;SDS011;22842;48.610;11.612;2022-11-11T04:24:17;9.32;;;4.90;;
36925;SDS011;22842;48.610;11.612;2022-11-11T04:27:07;7.75;;;4.68;;
36925;SDS011;22842;48.610;11.612;2022-11-11T04:29:35;9.25;;;4.90;;
36925;SDS011;22842;48.610;11.612;2022-11-11T04:32:10;6.60;;;4.30;;
36925;SDS011;22842;48.610;11.612;2022-11-11T04:34:57;7.88;;;4.25;;
36925;SDS011;22842;48.610;11.612;2022-11-11T04:37:25;11.43;;;5.10;;
36925;SDS011;22842;48.610;11.612;2022-11-11T04:39:53;6.90;;;4.38;;
36925;SDS011;22842;48.610;11.612;2022-11-11T04:42:40;5.90;;;4.43;;
36925;SDS011;22842;48.610;11.612;2022-11-11T04:45:08;8.45;;;4.50;;
36925;SDS011;22842;48.610;11.612;2022-11-11T04:50:34;9.35;;;4.55;;
36925;SDS011;22842;48.610;11.612;2022-11-11T04:53:03;8.32;;;4.18;;
36925;SDS011;22842;48.610;11.612;2022-11-11T04:55:30;6.75;;;4.68;;
36925;SDS011;22842;48.610;11.612;2022-11-11T04:58:17;9.05;;;4.90;;
36925;SDS011;22842;48.610;11.612;2022-11-11T05:00:45;12.05;;;4.78;;
36925;SDS011;22842;48.610;11.612;2022-11-11T05:03:13;7.53;;;4.80;;
36925;SDS011;22842;48.610;11.612;2022-11-11T05:05:42;7.10;;;4.53;;
36925;SDS011;22842;48.610;11.612;2022-11-11T05:08:29;7.47;;;5.38;;
36925;SDS011;22842;48.610;11.612;2022-11-11T05:11:15;8.15;;;4.93;;
36925;SDS011;22842;48.610;11.612;2022-11-11T05:13:43;8.80;;;4.68;;
36925;SDS011;22842;48.610;11.612;2022-11-11T05:16:31;9.65;;;5.05;;
36925;SDS011;22842;48.610;11.612;2022-11-11T05:19:17;6.90;;;4.95;;
36925;SDS011;22842;48.610;11.612;2022-11-11T05:22:06;12.25;;;4.80;;
36925;SDS011;22842;48.610;11.612;2022-11-11T05:24:34;7.47;;;5.28;;
36925;SDS011;22842;48.610;11.612;2022-11-11T05:27:20;8.57;;;5.10;;
36925;SDS011;22842;48.610;11.612;2022-11-11T05:29:48;9.50;;;6.00;;
36925;SDS011;22842;48.610;11.612;2022-11-11T05:32:18;9.35;;;5.32;;
36925;SDS011;22842;48.610;11.612;2022-11-11T05:34:47;9.38;;;5.47;;
36925;SDS011;22842;48.610;11.612;2022-11-11T05:37:15;11.00;;;5.55;;
36925;SDS011;22842;48.610;11.612;2022-11-11T05:39:43;10.73;;;5.13;;
36925;SDS011;22842;48.610;11.612;2022-11-11T05:42:10;8.20;;;5.22;;
36925;SDS011;22842;48.610;11.612;2022-11-11T05:44:38;7.30;;;4.82;;
36925;SDS011;22842;48.610;11.612;2022-11-11T05:47:06;7.25;;;4.38;;
36925;SDS011;22842;48.610;11.612;2022-11-11T05:49:33;7.10;;;4.63;;
36925;SDS011;22842;48.610;11.612;2022-11-11T05:52:01;12.70;;;5.43;;
36925;SDS011;22842;48.610;11.612;2022-11-11T05:54:29;11.60;;;5.97;;
36925;SDS011;22842;48.610;11.612;2022-11-11T05:56:56;7.90;;;5.70;;
36925;SDS011;22842;48.610;11.612;2022-11-11T05:59:24;6.75;;;4.85;;
36925;SDS011;22842;48.610;11.612;2022-11-11T06:01:52;8.93;;;5.82;;
36925;SDS011;22842;48.610;11.612;2022-11-11T06:04:19;12.65;;;5.95;;
36925;SDS011;22842;48.610;11.612;2022-11-11T06:06:47;9.73;;;5.30;;
36925;SDS011;22842;48.610;11.612;2022-11-11T06:09:15;9.05;;;5.85;;
36925;SDS011;22842;48.610;11.612;2022-11-11T06:11:42;7.50;;;5.05;;
36925;SDS011;22842;48.610;11.612;2022-11-11T06:14:09;7.93;;;5.10;;
36925;SDS011;22842;48.610;11.612;2022-11-11T06:16:37;6.45;;;5.00;;
36925;SDS011;22842;48.610;11.612;2022-11-11T06:19:05;9.35;;;5.50;;
36925;SDS011;22842;48.610;11.612;2022-11-11T06:21:32;8.70;;;5.50;;
36925;SDS011;22842;48.610;11.612;2022-11-11T06:24:20;8.43;;;5.90;;
36925;SDS011;22842;48.610;11.612;2022-11-11T06:26:52;7.53;;;5.22;;
36925;SDS011;22842;48.610;11.612;2022-11-11T06:29:19;9.90;;;5.78;;
36925;SDS011;22842;48.610;11.612;2022-11-11T06:31:47;8.32;;;6.15;;
36925;SDS011;22842;48.610;11.612;2022-11-11T06:34:14;12.68;;;5.75;;
36925;SDS011;22842;48.610;11.612;2022-11-11T06:36:42;8.80;;;6.07;;
36925;SDS011;22842;48.610;11.612;2022-11-11T06:39:10;8.85;;;6.22;;
36925;SDS011;22842;48.610;11.612;2022-11-11T06:41:37;10.32;;;6.60;;
36925;SDS011;22842;48.610;11.612;2022-11-11T06:44:04;9.27;;;6.32;;
36925;SDS011;22842;48.610;11.612;2022-11-11T06:46:32;9.80;;;5.55;;
36925;SDS011;22842;48.610;11.612;2022-11-11T06:48:59;16.42;;;7.15;;
36925;SDS011;22842;48.610;11.612;2022-11-11T06:51:27;11.38;;;6.43;;
36925;SDS011;22842;48.610;11.612;2022-11-11T06:53:55;11.63;;;6.50;;
36925;SDS011;22842;48.610;11.612;2022-11-11T06:56:22;24.80;;;7.57;;
36925;SDS011;22842;48.610;11.612;2022-11-11T06:58:50;11.63;;;6.95;;
36925;SDS011;22842;48.610;11.612;2022-11-11T07:01:18;11.75;;;6.30;;
36925;SDS011;22842;48.610;11.612;2022-11-11T07:03:45;17.77;;;9.30;;
36925;SDS011;22842;48.610;11.612;2022-11-11T07:06:13;23.70;;;8.90;;
36925;SDS011;22842;48.610;11.612;2022-11-11T07:08:40;19.25;;;9.88;;
36925;SDS011;22842;48.610;11.612;2022-11-11T07:11:10;24.08;;;11.93;;
36925;SDS011;22842;48.610;11.612;2022-11-11T07:13:44;20.77;;;11.68;;
36925;SDS011;22842;48.610;11.612;2022-11-11T07:16:11;21.85;;;11.80;;
36925;SDS011;22842;48.610;11.612;2022-11-11T07:18:38;25.17;;;11.80;;
36925;SDS011;22842;48.610;11.612;2022-11-11T07:21:06;24.10;;;12.38;;
36925;SDS011;22842;48.610;11.612;2022-11-11T07:23:33;24.88;;;11.90;;
36925;SDS011;22842;48.610;11.612;2022-11-11T07:26:01;25.27;;;10.93;;
36925;SDS011;22842;48.610;11.612;2022-11-11T07:28:28;22.98;;;9.00;;
36925;SDS011;22842;48.610;11.612;2022-11-11T07:30:56;18.95;;;9.55;;
36925;SDS011;22842;48.610;11.612;2022-11-11T07:33:23;17.45;;;8.85;;
36925;SDS011;22842;48.610;11.612;2022-11-11T07:35:51;17.38;;;9.82;;
36925;SDS011;22842;48.610;11.612;2022-11-11T07:38:18;16.65;;;10.05;;
36925;SDS011;22842;48.610;11.612;2022-11-11T07:40:46;15.15;;;8.73;;
36925;SDS011;22842;48.610;11.612;2022-11-11T07:43:14;16.77;;;10.88;;
36925;SDS011;22842;48.610;11.612;2022-11-11T07:45:41;22.10;;;10.82;;
36925;SDS011;22842;48.610;11.612;2022-11-11T07:48:09;21.10;;;12.63;;
36925;SDS011;22842;48.610;11.612;2022-11-11T07:50:37;23.95;;;13.30;;
36925;SDS011;22842;48.610;11.612;2022-11-11T07:53:04;22.15;;;12.98;;
36925;SDS011;22842;48.610;11.612;2022-11-11T07:55:32;24.98;;;15.48;;
36925;SDS011;22842;48.610;11.612;2022-11-11T07:57:59;26.85;;;17.10;;
36925;SDS011;22842;48.610;11.612;2022-11-11T08:00:28;29.25;;;18.02;;
36925;SDS011;22842;48.610;11.612;2022-11-11T08:02:55;32.78;;;20.67;;
36925;SDS011;22842;48.610;11.612;2022-11-11T08:05:24;27.73;;;15.07;;
36925;SDS011;22842;48.610;11.612;2022-11-11T08:07:52;25.50;;;14.63;;
36925;SDS011;22842;48.610;11.612;2022-11-11T08:10:19;31.42;;;19.75;;
36925;SDS011;22842;48.610;11.612;2022-11-11T08:12:52;22.02;;;13.07;;
36925;SDS011;22842;48.610;11.612;2022-11-11T08:15:38;22.58;;;11.82;;
36925;SDS011;22842;48.610;11.612;2022-11-11T08:18:07;23.17;;;11.88;;
36925;SDS011;22842;48.610;11.612;2022-11-11T08:20:35;23.20;;;12.30;;
36925;SDS011;22842;48.610;11.612;2022-11-11T08:23:09;22.20;;;10.82;;
36925;SDS011;22842;48.610;11.612;2022-11-11T08:25:57;21.70;;;12.55;;
36925;SDS011;22842;48.610;11.612;2022-11-11T08:28:25;23.35;;;12.32;;
36925;SDS011;22842;48.610;11.612;2022-11-11T08:30:53;22.65;;;11.77;;
36925;SDS011;22842;48.610;11.612;2022-11-11T08:33:28;19.17;;;11.82;;
36925;SDS011;22842;48.610;11.612;2022-11-11T08:36:00;21.08;;;12.32;;
36925;SDS011;22842;48.610;11.612;2022-11-11T08:38:27;21.60;;;12.02;;
36925;SDS011;22842;48.610;11.612;2022-11-11T08:40:58;18.25;;;11.02;;
36925;SDS011;22842;48.610;11.612;2022-11-11T08:43:26;32.63;;;10.93;;
36925;SDS011;22842;48.610;11.612;2022-11-11T08:46:03;25.42;;;13.02;;
36925;SDS011;22842;48.610;11.612;2022-11-11T08:48:31;28.33;;;13.13;;
36925;SDS011;22842;48.610;11.612;2022-11-11T08:50:58;23.17;;;11.45;;
36925;SDS011;22842;48.610;11.612;2022-11-11T08:53:26;27.75;;;10.55;;
36925;SDS011;22842;48.610;11.612;2022-11-11T08:55:53;20.75;;;11.13;;
36925;SDS011;22842;48.610;11.612;2022-11-11T08:58:21;23.77;;;11.32;;
36925;SDS011;22842;48.610;11.612;2022-11-11T09:00:48;19.92;;;12.55;;
36925;SDS011;22842;48.610;11.612;2022-11-11T09:03:16;24.67;;;13.60;;
36925;SDS011;22842;48.610;11.612;2022-11-11T09:05:44;22.55;;;13.77;;
36925;SDS011;22842;48.610;11.612;2022-11-11T09:08:13;39.05;;;14.65;;
36925;SDS011;22842;48.610;11.612;2022-11-11T09:10:40;35.80;;;13.35;;
36925;SDS011;22842;48.610;11.612;2022-11-11T09:13:07;31.55;;;14.55;;
36925;SDS011;22842;48.610;11.612;2022-11-11T09:15:35;22.00;;;13.63;;
36925;SDS011;22842;48.610;11.612;2022-11-11T09:18:03;47.05;;;14.07;;
36925;SDS011;22842;48.610;11.612;2022-11-11T09:20:30;134.80;;;12.45;;
36925;SDS011;22842;48.610;11.612;2022-11-11T09:22:57;91.40;;;11.25;;
36925;SDS011;22842;48.610;11.612;2022-11-11T09:25:25;75.03;;;13.00;;
36925;SDS011;22842;48.610;11.612;2022-11-11T09:27:56;44.22;;;12.27;;
36925;SDS011;22842;48.610;11.612;2022-11-11T09:30:24;37.78;;;11.68;;
36925;SDS011;22842;48.610;11.612;2022-11-11T09:32:52;45.95;;;11.60;;
36925;SDS011;22842;48.610;11.612;2022-11-11T09:35:20;39.33;;;11.68;;
36925;SDS011;22842;48.610;11.612;2022-11-11T09:37:54;50.03;;;11.32;;
36925;SDS011;22842;48.610;11.612;2022-11-11T09:40:23;54.58;;;10.73;;
36925;SDS011;22842;48.610;11.612;2022-11-11T09:43:41;43.70;;;11.00;;
36925;SDS011;22842;48.610;11.612;2022-11-11T09:51:01;21.80;;;12.30;;
36925;SDS011;22842;48.610;11.612;2022-11-11T09:53:34;154.07;;;14.80;;
36925;SDS011;22842;48.610;11.612;2022-11-11T09:56:07;31.45;;;10.15;;
36925;SDS011;22842;48.610;11.612;2022-11-11T10:01:35;67.38;;;13.00;;
36925;SDS011;22842;48.610;11.612;2022-11-11T10:06:52;18.65;;;10.38;;
36925;SDS011;22842;48.610;11.612;2022-11-11T10:10:05;32.13;;;11.30;;
36925;SDS011;22842;48.610;11.612;2022-11-11T10:12:13;23.60;;;11.30;;
36925;SDS011;22842;48.610;11.612;2022-11-11T10:14:41;17.75;;;11.07;;
36925;SDS011;22842;48.610;11.612;2022-11-11T10:22:35;23.52;;;11.05;;
36925;SDS011;22842;48.610;11.612;2022-11-11T10:27:44;34.42;;;12.18;;
36925;SDS011;22842;48.610;11.612;2022-11-11T10:30:15;18.92;;;12.57;;
36925;SDS011;22842;48.610;11.612;2022-11-11T10:32:44;29.02;;;11.65;;
36925;SDS011;22842;48.610;11.612;2022-11-11T10:35:21;23.38;;;11.02;;
36925;SDS011;22842;48.610;11.612;2022-11-11T10:38:00;21.90;;;13.25;;
36925;SDS011;22842;48.610;11.612;2022-11-11T10:40:36;20.08;;;13.85;;
36925;SDS011;22842;48.610;11.612;2022-11-11T10:43:10;18.25;;;12.05;;
36925;SDS011;22842;48.610;11.612;2022-11-11T10:48:49;19.45;;;11.85;;
36925;SDS011;22842;48.610;11.612;2022-11-11T10:51:18;15.30;;;11.57;;
36925;SDS011;22842;48.610;11.612;2022-11-11T10:54:29;14.88;;;10.63;;
36925;SDS011;22842;48.610;11.612;2022-11-11T10:56:42;19.23;;;12.45;;
36925;SDS011;22842;48.610;11.612;2022-11-11T11:04:40;17.50;;;12.63;;
36925;SDS011;22842;48.610;11.612;2022-11-11T11:07:12;16.88;;;12.10;;
36925;SDS011;22842;48.610;11.612;2022-11-11T11:09:41;18.92;;;12.25;;
36925;SDS011;22842;48.610;11.612;2022-11-11T11:12:13;15.85;;;11.77;;
36925;SDS011;22842;48.610;11.612;2022-11-11T11:14:43;15.30;;;11.90;;
36925;SDS011;22842;48.610;11.612;2022-11-11T11:17:57;14.57;;;10.95;;
36925;SDS011;22842;48.610;11.612;2022-11-11T11:20:08;16.45;;;12.02;;
36925;SDS011;22842;48.610;11.612;2022-11-11T11:25:16;18.05;;;12.82;;
36925;SDS011;22842;48.610;11.612;2022-11-11T11:27:44;24.42;;;13.50;;
36925;SDS011;22842;48.610;11.612;2022-11-11T11:30:13;16.00;;;12.07;;
36925;SDS011;22842;48.610;11.612;2022-11-11T11:32:54;17.60;;;12.80;;
36925;SDS011;22842;48.610;11.612;2022-11-11T11:35:35;35.88;;;14.95;;
36925;SDS011;22842;48.610;11.612;2022-11-11T11:38:04;24.00;;;18.98;;
36925;SDS011;22842;48.610;11.612;2022-11-11T11:40:45;23.17;;;17.30;;
36925;SDS011;22842;48.610;11.612;2022-11-11T11:43:23;17.92;;;12.70;;
36925;SDS011;22842;48.610;11.612;2022-11-11T11:45:54;18.35;;;12.77;;
36925;SDS011;22842;48.610;11.612;2022-11-11T11:56:38;19.50;;;15.00;;
36925;SDS011;22842;48.610;11.612;2022-11-11T12:02:04;18.08;;;12.90;;
36925;SDS011;22842;48.610;11.612;2022-11-11T12:04:55;19.88;;;14.57;;
36925;SDS011;22842;48.610;11.612;2022-11-11T12:07:30;17.38;;;12.88;;
36925;SDS011;22842;48.610;11.612;2022-11-11T12:17:45;17.55;;;13.55;;
36925;SDS011;22842;48.610;11.612;2022-11-11T12:25:17;17.23;;;13.27;;
36925;SDS011;22842;48.610;11.612;2022-11-11T12:30:48;18.63;;;13.65;;
36925;SDS011;22842;48.610;11.612;2022-11-11T12:39:44;19.00;;;13.93;;
36925;SDS011;22842;48.610;11.612;2022-11-11T12:45:02;19.97;;;14.53;;
36925;SDS011;22842;48.610;11.612;2022-11-11T12:47:36;21.23;;;14.25;;
36925;SDS011;22842;48.610;11.612;2022-11-11T12:50:16;17.17;;;12.48;;
36925;SDS011;22842;48.610;11.612;2022-11-11T13:00:29;16.15;;;11.73;;
36925;SDS011;22842;48.610;11.612;2022-11-11T13:10:58;18.00;;;12.73;;
36925;SDS011;22842;48.610;11.612;2022-11-11T13:13:51;18.48;;;12.95;;
36925;SDS011;22842;48.610;11.612;2022-11-11T13:16:23;16.45;;;11.70;;
36925;SDS011;22842;48.610;11.612;2022-11-11T13:18:57;13.13;;;10.93;;
36925;SDS011;22842;48.610;11.612;2022-11-11T13:21:40;15.02;;;10.98;;
36925;SDS011;22842;48.610;11.612;2022-11-11T13:24:10;20.55;;;12.45;;
36925;SDS011;22842;48.610;11.612;2022-11-11T13:26:40;16.05;;;11.30;;
36925;SDS011;22842;48.610;11.612;2022-11-11T13:31:56;17.15;;;11.18;;
36925;SDS011;22842;48.610;11.612;2022-11-11T13:34:24;16.13;;;11.43;;
36925;SDS011;22842;48.610;11.612;2022-11-11T13:36:52;14.23;;;11.20;;
36925;SDS011;22842;48.610;11.612;2022-11-11T13:39:26;15.77;;;11.85;;
36925;SDS011;22842;48.610;11.612;2022-11-11T13:41:55;12.07;;;10.65;;
36925;SDS011;22842;48.610;11.612;2022-11-11T13:44:24;14.05;;;11.45;;
36925;SDS011;22842;48.610;11.612;2022-11-11T13:46:58;16.85;;;10.50;;
36925;SDS011;22842;48.610;11.612;2022-11-11T13:51:57;15.85;;;10.90;;
36925;SDS011;22842;48.610;11.612;2022-11-11T13:54:29;16.77;;;12.13;;
36925;SDS011;22842;48.610;11.612;2022-11-11T13:57:05;20.73;;;12.95;;
36925;SDS011;22842;48.610;11.612;2022-11-11T13:59:36;17.83;;;10.90;;
36925;SDS011;22842;48.610;11.612;2022-11-11T14:02:13;15.48;;;11.98;;
36925;SDS011;22842;48.610;11.612;2022-11-11T14:12:44;20.00;;;14.48;;
36925;SDS011;22842;48.610;11.612;2022-11-11T14:17:58;29.60;;;18.70;;
36925;SDS011;22842;48.610;11.612;2022-11-11T14:20:36;28.38;;;17.63;;
36925;SDS011;22842;48.610;11.612;2022-11-11T14:25:48;26.48;;;18.60;;
36925;SDS011;22842;48.610;11.612;2022-11-11T14:30:46;32.55;;;19.38;;
36925;SDS011;22842;48.610;11.612;2022-11-11T14:39:23;48.50;;;20.15;;
36925;SDS011;22842;48.610;11.612;2022-11-11T14:52:25;35.75;;;22.23;;
36925;SDS011;22842;48.610;11.612;2022-11-11T14:57:30;44.58;;;25.42;;
36925;SDS011;22842;48.610;11.612;2022-11-11T15:00:00;42.05;;;23.15;;
36925;SDS011;22842;48.610;11.612;2022-11-11T15:02:35;32.90;;;20.45;;
36925;SDS011;22842;48.610;11.612;2022-11-11T15:05:04;41.67;;;21.23;;
36925;SDS011;22842;48.610;11.612;2022-11-11T15:10:26;54.75;;;22.00;;
36925;SDS011;22842;48.610;11.612;2022-11-11T15:12:59;83.65;;;25.77;;
36925;SDS011;22842;48.610;11.612;2022-11-11T15:15:41;49.70;;;23.40;;
36925;SDS011;22842;48.610;11.612;2022-11-11T15:21:06;189.90;;;33.35;;
36925;SDS011;22842;48.610;11.612;2022-11-11T15:23:41;39.42;;;24.38;;
36925;SDS011;22842;48.610;11.612;2022-11-11T15:26:33;103.65;;;20.38;;
36925;SDS011;22842;48.610;11.612;2022-11-11T15:29:07;97.60;;;17.42;;
36925;SDS011;22842;48.610;11.612;2022-11-11T15:36:53;38.20;;;16.98;;
36925;SDS011;22842;48.610;11.612;2022-11-11T15:39:23;161.05;;;20.48;;
36925;SDS011;22842;48.610;11.612;2022-11-11T15:41:52;200.02;;;26.92;;
36925;SDS011;22842;48.610;11.612;2022-11-11T15:44:21;81.57;;;20.67;;
36925;SDS011;22842;48.610;11.612;2022-11-11T15:46:50;48.33;;;19.85;;
36925;SDS011;22842;48.610;11.612;2022-11-11T15:52:25;150.85;;;19.63;;
36925;SDS011;22842;48.610;11.612;2022-11-11T15:54:54;53.58;;;21.13;;
36925;SDS011;22842;48.610;11.612;2022-11-11T15:57:22;230.00;;;24.52;;
36925;SDS011;22842;48.610;11.612;2022-11-11T15:59:50;309.65;;;30.65;;
36925;SDS011;22842;48.610;11.612;2022-11-11T16:02:18;352.23;;;31.65;;
36925;SDS011;22842;48.610;11.612;2022-11-11T16:04:54;393.40;;;34.83;;
36925;SDS011;22842;48.610;11.612;2022-11-11T16:07:23;270.55;;;30.38;;
36925;SDS011;22842;48.610;11.612;2022-11-11T16:09:51;217.10;;;25.48;;
36925;SDS011;22842;48.610;11.612;2022-11-11T16:12:23;101.53;;;22.05;;
36925;SDS011;22842;48.610;11.612;2022-11-11T16:14:52;88.35;;;21.65;;
36925;SDS011;22842;48.610;11.612;2022-11-11T16:17:21;49.55;;;19.38;;
36925;SDS011;22842;48.610;11.612;2022-11-11T16:19:51;162.70;;;25.52;;
36925;SDS011;22842;48.610;11.612;2022-11-11T16:22:20;137.10;;;22.63;;
36925;SDS011;22842;48.610;11.612;2022-11-11T16:24:49;301.50;;;26.95;;
36925;SDS011;22842;48.610;11.612;2022-11-11T16:27:18;43.40;;;19.98;;
36925;SDS011;22842;48.610;11.612;2022-11-11T16:29:47;47.38;;;23.10;;
36925;SDS011;22842;48.610;11.612;2022-11-11T16:34:52;260.00;;;28.88;;
36925;SDS011;22842;48.610;11.612;2022-11-11T16:37:20;261.73;;;28.38;;
36925;SDS011;22842;48.610;11.612;2022-11-11T16:39:47;211.82;;;25.23;;
36925;SDS011;22842;48.610;11.612;2022-11-11T16:42:22;227.63;;;32.90;;
36925;SDS011;22842;48.610;11.612;2022-11-11T16:44:55;206.40;;;25.80;;
36925;SDS011;22842;48.610;11.612;2022-11-11T16:52:27;287.85;;;32.25;;
36925;SDS011;22842;48.610;11.612;2022-11-11T16:54:56;159.75;;;22.35;;
36925;SDS011;22842;48.610;11.612;2022-11-11T16:57:27;189.88;;;26.25;;
36925;SDS011;22842;48.610;11.612;2022-11-11T16:59:56;53.22;;;24.13;;
36925;SDS011;22842;48.610;11.612;2022-11-11T17:02:27;243.82;;;31.35;;
36925;SDS011;22842;48.610;11.612;2022-11-11T17:04:55;190.10;;;22.73;;
36925;SDS011;22842;48.610;11.612;2022-11-11T17:07:27;95.07;;;19.40;;
36925;SDS011;22842;48.610;11.612;2022-11-11T17:10:15;200.25;;;22.95;;
36925;SDS011;22842;48.610;11.612;2022-11-11T17:12:43;29.48;;;17.30;;
36925;SDS011;22842;48.610;11.612;2022-11-11T17:15:11;59.20;;;16.20;;
36925;SDS011;22842;48.610;11.612;2022-11-11T17:17:40;152.10;;;23.27;;